Malta, Montana
Current Conditions -  °F | °C
As of 11:53 PM on Sunday 23 Nov 2014 (Local Time) from KGGW Reporting Station
Overcast Overcast  
Wind Chill:   Ceiling: 7000
Heat Index: 18°   Visibility: 10mi
Dew Point: 14°   Wind: 7mph
Humidity: 84%   Direction: 100°E
Pressure: 29.8"   Gusts: NA
Location:  48.36°N, 107.87°W
Report Text: KGGW 240653Z AUTO 10006KT 10SM OVC070 M08/M10 A2980 RMK AO2 SLP126 T10781100 400331111
Loading
Personal Weather Stations






























Interactive Weather Map New forecast layout! Learn more

10-Day Weather Forecast

Advertisements
Track Severe Weather on mobile